sensor_id;sensor_type;location;lat;lon;timestamp;pressure;altitude;pressure_sealevel;temperature;humidity
31775;BME280;66189;49.000;11.640;2023-04-15T00:00:07;94897.81;;;4.71;81.69
31775;BME280;66189;49.000;11.640;2023-04-15T00:02:18;94893.19;;;4.68;82.02
31775;BME280;66189;49.000;11.640;2023-04-15T00:04:18;94894.75;;;4.69;82.19
31775;BME280;66189;49.000;11.640;2023-04-15T00:06:19;94889.41;;;4.69;82.03
31775;BME280;66189;49.000;11.640;2023-04-15T00:08:22;94888.91;;;4.63;82.27
31775;BME280;66189;49.000;11.640;2023-04-15T00:10:23;94887.25;;;4.59;82.26
31775;BME280;66189;49.000;11.640;2023-04-15T00:12:24;94886.56;;;4.62;82.49
31775;BME280;66189;49.000;11.640;2023-04-15T00:14:25;94890.50;;;4.52;82.72
31775;BME280;66189;49.000;11.640;2023-04-15T00:16:25;94884.84;;;4.54;82.92
31775;BME280;66189;49.000;11.640;2023-04-15T00:18:26;94879.53;;;4.38;83.74
31775;BME280;66189;49.000;11.640;2023-04-15T00:20:26;94873.59;;;4.44;83.46
31775;BME280;66189;49.000;11.640;2023-04-15T00:22:26;94875.31;;;4.37;83.93
31775;BME280;66189;49.000;11.640;2023-04-15T00:24:27;94880.31;;;4.38;84.05
31775;BME280;66189;49.000;11.640;2023-04-15T00:26:28;94861.94;;;4.33;84.17
31775;BME280;66189;49.000;11.640;2023-04-15T00:28:29;94864.78;;;4.40;83.96
31775;BME280;66189;49.000;11.640;2023-04-15T00:30:30;94865.13;;;4.39;83.84
31775;BME280;66189;49.000;11.640;2023-04-15T00:32:31;94863.75;;;4.45;83.46
31775;BME280;66189;49.000;11.640;2023-04-15T00:34:31;94862.53;;;4.42;83.74
31775;BME280;66189;49.000;11.640;2023-04-15T00:36:32;94861.16;;;4.49;83.51
31775;BME280;66189;49.000;11.640;2023-04-15T00:38:34;94852.81;;;4.50;83.42
31775;BME280;66189;49.000;11.640;2023-04-15T00:40:34;94856.94;;;4.48;83.74
31775;BME280;66189;49.000;11.640;2023-04-15T00:42:34;94854.72;;;4.50;83.57
31775;BME280;66189;49.000;11.640;2023-04-15T00:44:35;94858.56;;;4.52;83.24
31775;BME280;66189;49.000;11.640;2023-04-15T00:46:36;94856.00;;;4.56;83.13
31775;BME280;66189;49.000;11.640;2023-04-15T00:48:37;94852.38;;;4.64;82.98
31775;BME280;66189;49.000;11.640;2023-04-15T00:50:38;94854.63;;;4.62;83.05
31775;BME280;66189;49.000;11.640;2023-04-15T00:52:38;94861.97;;;4.69;82.89
31775;BME280;66189;49.000;11.640;2023-04-15T00:54:39;94851.59;;;4.63;83.26
31775;BME280;66189;49.000;11.640;2023-04-15T00:56:39;94848.84;;;4.60;83.46
31775;BME280;66189;49.000;11.640;2023-04-15T00:58:40;94846.88;;;4.57;83.51
31775;BME280;66189;49.000;11.640;2023-04-15T01:00:41;94845.00;;;4.57;83.39
31775;BME280;66189;49.000;11.640;2023-04-15T01:02:41;94843.03;;;4.54;83.55
31775;BME280;66189;49.000;11.640;2023-04-15T01:04:42;94834.34;;;4.41;84.28
31775;BME280;66189;49.000;11.640;2023-04-15T01:06:42;94833.91;;;4.39;84.23
31775;BME280;66189;49.000;11.640;2023-04-15T01:08:44;94834.78;;;4.43;83.84
31775;BME280;66189;49.000;11.640;2023-04-15T01:10:47;94832.81;;;4.40;84.06
31775;BME280;66189;49.000;11.640;2023-04-15T01:12:48;94833.16;;;4.39;84.13
31775;BME280;66189;49.000;11.640;2023-04-15T01:14:48;94827.91;;;4.26;85.09
31775;BME280;66189;49.000;11.640;2023-04-15T01:16:48;94835.88;;;4.26;84.92
31775;BME280;66189;49.000;11.640;2023-04-15T01:18:49;94836.00;;;4.30;84.51
31775;BME280;66189;49.000;11.640;2023-04-15T01:20:49;94839.00;;;4.29;84.91
31775;BME280;66189;49.000;11.640;2023-04-15T01:22:50;94839.06;;;4.32;84.40
31775;BME280;66189;49.000;11.640;2023-04-15T01:24:53;94839.75;;;4.29;84.23
31775;BME280;66189;49.000;11.640;2023-04-15T01:26:55;94835.03;;;4.22;84.28
31775;BME280;66189;49.000;11.640;2023-04-15T01:28:57;94838.31;;;4.32;84.55
31775;BME280;66189;49.000;11.640;2023-04-15T01:31:10;94828.59;;;4.39;84.25
31775;BME280;66189;49.000;11.640;2023-04-15T01:33:11;94834.78;;;4.27;84.18
31775;BME280;66189;49.000;11.640;2023-04-15T01:35:12;94836.56;;;4.23;84.50
31775;BME280;66189;49.000;11.640;2023-04-15T01:37:12;94836.41;;;4.32;84.40
31775;BME280;66189;49.000;11.640;2023-04-15T01:39:13;94837.09;;;4.29;84.35
31775;BME280;66189;49.000;11.640;2023-04-15T01:41:13;94832.13;;;4.27;84.57
31775;BME280;66189;49.000;11.640;2023-04-15T01:43:14;94831.53;;;4.34;83.86
31775;BME280;66189;49.000;11.640;2023-04-15T01:45:16;94843.72;;;4.35;83.97
31775;BME280;66189;49.000;11.640;2023-04-15T01:47:16;94836.06;;;4.34;83.78
31775;BME280;66189;49.000;11.640;2023-04-15T01:49:16;94842.19;;;4.34;83.75
31775;BME280;66189;49.000;11.640;2023-04-15T01:51:17;94843.38;;;4.37;83.81
31775;BME280;66189;49.000;11.640;2023-04-15T01:53:17;94836.94;;;4.38;83.58
31775;BME280;66189;49.000;11.640;2023-04-15T01:55:17;94831.00;;;4.29;83.61
31775;BME280;66189;49.000;11.640;2023-04-15T01:57:19;94833.31;;;4.30;83.29
31775;BME280;66189;49.000;11.640;2023-04-15T01:59:20;94839.19;;;4.36;83.11
31775;BME280;66189;49.000;11.640;2023-04-15T02:01:20;94839.00;;;4.29;83.45
31775;BME280;66189;49.000;11.640;2023-04-15T02:03:21;94840.09;;;4.27;83.48
31775;BME280;66189;49.000;11.640;2023-04-15T02:05:21;94845.50;;;4.31;83.50
31775;BME280;66189;49.000;11.640;2023-04-15T02:07:22;94841.38;;;4.34;83.31
31775;BME280;66189;49.000;11.640;2023-04-15T02:09:23;94836.22;;;4.25;83.62
31775;BME280;66189;49.000;11.640;2023-04-15T02:11:24;94841.91;;;4.23;83.94
31775;BME280;66189;49.000;11.640;2023-04-15T02:13:26;94841.56;;;4.25;83.58
31775;BME280;66189;49.000;11.640;2023-04-15T02:15:26;94839.56;;;4.22;84.00
31775;BME280;66189;49.000;11.640;2023-04-15T02:17:26;94840.19;;;4.31;83.82
31775;BME280;66189;49.000;11.640;2023-04-15T02:19:27;94840.72;;;4.21;84.00
31775;BME280;66189;49.000;11.640;2023-04-15T02:21:27;94836.91;;;4.22;84.09
31775;BME280;66189;49.000;11.640;2023-04-15T02:23:27;94833.50;;;4.21;83.94
31775;BME280;66189;49.000;11.640;2023-04-15T02:25:28;94833.31;;;4.14;84.22
31775;BME280;66189;49.000;11.640;2023-04-15T02:27:28;94831.78;;;4.13;84.21
31775;BME280;66189;49.000;11.640;2023-04-15T02:29:30;94840.94;;;4.16;84.17
31775;BME280;66189;49.000;11.640;2023-04-15T02:31:31;94836.91;;;4.22;84.04
31775;BME280;66189;49.000;11.640;2023-04-15T02:33:35;94836.16;;;4.21;84.12
31775;BME280;66189;49.000;11.640;2023-04-15T02:35:36;94840.03;;;4.24;84.06
31775;BME280;66189;49.000;11.640;2023-04-15T02:37:41;94832.53;;;4.14;84.23
31775;BME280;66189;49.000;11.640;2023-04-15T02:39:45;94842.25;;;4.22;84.38
31775;BME280;66189;49.000;11.640;2023-04-15T02:41:46;94833.75;;;4.16;84.35
31775;BME280;66189;49.000;11.640;2023-04-15T02:43:51;94836.31;;;4.13;84.44
31775;BME280;66189;49.000;11.640;2023-04-15T02:45:51;94844.31;;;4.13;84.52
31775;BME280;66189;49.000;11.640;2023-04-15T02:47:53;94833.25;;;4.11;84.03
31775;BME280;66189;49.000;11.640;2023-04-15T02:49:54;94834.94;;;4.19;84.11
31775;BME280;66189;49.000;11.640;2023-04-15T02:51:54;94841.81;;;4.20;83.78
31775;BME280;66189;49.000;11.640;2023-04-15T02:53:55;94833.84;;;4.20;83.60
31775;BME280;66189;49.000;11.640;2023-04-15T02:55:55;94833.91;;;4.23;83.75
31775;BME280;66189;49.000;11.640;2023-04-15T02:57:56;94829.72;;;4.22;83.58
31775;BME280;66189;49.000;11.640;2023-04-15T02:59:58;94836.31;;;4.13;84.20
31775;BME280;66189;49.000;11.640;2023-04-15T03:01:59;94830.31;;;4.16;84.27
31775;BME280;66189;49.000;11.640;2023-04-15T03:04:00;94832.53;;;4.14;83.99
31775;BME280;66189;49.000;11.640;2023-04-15T03:06:00;94826.53;;;4.17;83.88
31775;BME280;66189;49.000;11.640;2023-04-15T03:08:01;94826.72;;;4.24;83.68
31775;BME280;66189;49.000;11.640;2023-04-15T03:10:02;94824.56;;;4.14;84.09
31775;BME280;66189;49.000;11.640;2023-04-15T03:12:02;94824.91;;;4.12;83.83
31775;BME280;66189;49.000;11.640;2023-04-15T03:14:03;94829.03;;;4.09;84.17
31775;BME280;66189;49.000;11.640;2023-04-15T03:16:08;94832.47;;;4.10;84.32
31775;BME280;66189;49.000;11.640;2023-04-15T03:18:08;94832.13;;;4.12;84.39
31775;BME280;66189;49.000;11.640;2023-04-15T03:20:09;94826.00;;;4.11;84.31
31775;BME280;66189;49.000;11.640;2023-04-15T03:22:09;94829.53;;;4.15;84.19
31775;BME280;66189;49.000;11.640;2023-04-15T03:24:10;94831.34;;;4.11;84.15
31775;BME280;66189;49.000;11.640;2023-04-15T03:26:22;94835.47;;;4.08;84.13
31775;BME280;66189;49.000;11.640;2023-04-15T03:28:23;94832.91;;;4.12;83.81
31775;BME280;66189;49.000;11.640;2023-04-15T03:30:24;94826.34;;;4.09;83.98
31775;BME280;66189;49.000;11.640;2023-04-15T03:32:24;94826.34;;;4.09;83.66
31775;BME280;66189;49.000;11.640;2023-04-15T03:34:25;94828.78;;;4.15;83.49
31775;BME280;66189;49.000;11.640;2023-04-15T03:36:27;94827.81;;;4.23;83.50
31775;BME280;66189;49.000;11.640;2023-04-15T03:38:28;94824.28;;;4.19;83.46
31775;BME280;66189;49.000;11.640;2023-04-15T03:40:29;94826.72;;;4.24;83.55
31775;BME280;66189;49.000;11.640;2023-04-15T03:42:29;94829.81;;;4.26;83.12
31775;BME280;66189;49.000;11.640;2023-04-15T03:44:29;94823.59;;;4.22;83.08
31775;BME280;66189;49.000;11.640;2023-04-15T03:46:30;94824.13;;;4.27;83.22
31775;BME280;66189;49.000;11.640;2023-04-15T03:48:30;94824.22;;;4.31;83.00
31775;BME280;66189;49.000;11.640;2023-04-15T03:50:30;94814.59;;;4.26;82.59
31775;BME280;66189;49.000;11.640;2023-04-15T03:52:30;94826.63;;;4.20;82.69
31775;BME280;66189;49.000;11.640;2023-04-15T03:54:31;94825.16;;;4.23;83.07
31775;BME280;66189;49.000;11.640;2023-04-15T03:56:31;94820.94;;;4.22;83.02
31775;BME280;66189;49.000;11.640;2023-04-15T03:58:31;94816.84;;;4.24;83.38
31775;BME280;66189;49.000;11.640;2023-04-15T04:00:32;94819.91;;;4.26;83.13
31775;BME280;66189;49.000;11.640;2023-04-15T04:02:32;94819.91;;;4.26;83.33
31775;BME280;66189;49.000;11.640;2023-04-15T04:04:32;94831.19;;;4.20;83.59
31775;BME280;66189;49.000;11.640;2023-04-15T04:06:33;94820.53;;;4.20;83.82
31775;BME280;66189;49.000;11.640;2023-04-15T04:08:33;94818.97;;;4.19;83.50
31775;BME280;66189;49.000;11.640;2023-04-15T04:10:33;94824.56;;;4.14;84.09
31775;BME280;66189;49.000;11.640;2023-04-15T04:12:34;94819.94;;;4.11;84.13
31775;BME280;66189;49.000;11.640;2023-04-15T04:14:34;94821.13;;;4.13;84.45
31775;BME280;66189;49.000;11.640;2023-04-15T04:16:34;94818.91;;;4.15;84.14
31775;BME280;66189;49.000;11.640;2023-04-15T04:18:35;94817.78;;;4.16;84.27
31775;BME280;66189;49.000;11.640;2023-04-15T04:20:35;94819.59;;;4.12;84.57
31775;BME280;66189;49.000;11.640;2023-04-15T04:22:36;94822.66;;;4.14;84.36
31775;BME280;66189;49.000;11.640;2023-04-15T04:24:37;94828.84;;;4.18;84.49
31775;BME280;66189;49.000;11.640;2023-04-15T04:26:37;94823.69;;;4.09;84.86
31775;BME280;66189;49.000;11.640;2023-04-15T04:28:37;94826.81;;;4.12;84.52
31775;BME280;66189;49.000;11.640;2023-04-15T04:30:39;94827.22;;;4.14;84.80
31775;BME280;66189;49.000;11.640;2023-04-15T04:32:40;94825.09;;;4.19;84.55
31775;BME280;66189;49.000;11.640;2023-04-15T04:34:40;94818.91;;;4.15;84.26
31775;BME280;66189;49.000;11.640;2023-04-15T04:36:40;94824.56;;;4.14;84.68
31775;BME280;66189;49.000;11.640;2023-04-15T04:38:41;94822.25;;;4.12;84.41
31775;BME280;66189;49.000;11.640;2023-04-15T04:40:41;94831.78;;;4.13;84.66
31775;BME280;66189;49.000;11.640;2023-04-15T04:42:42;94826.13;;;4.15;84.77
31775;BME280;66189;49.000;11.640;2023-04-15T04:44:42;94834.78;;;4.12;85.02
31775;BME280;66189;49.000;11.640;2023-04-15T04:46:42;94827.91;;;4.11;85.11
31775;BME280;66189;49.000;11.640;2023-04-15T04:48:43;94830.03;;;4.05;85.85
31775;BME280;66189;49.000;11.640;2023-04-15T04:50:43;94837.59;;;4.03;85.96
31775;BME280;66189;49.000;11.640;2023-04-15T04:52:44;94837.69;;;4.06;86.25
31775;BME280;66189;49.000;11.640;2023-04-15T04:54:44;94840.34;;;4.06;86.41
31775;BME280;66189;49.000;11.640;2023-04-15T04:56:47;94846.47;;;4.07;86.20
31775;BME280;66189;49.000;11.640;2023-04-15T04:58:47;94845.94;;;4.01;86.31
31775;BME280;66189;49.000;11.640;2023-04-15T05:00:48;94843.81;;;4.07;86.00
31775;BME280;66189;49.000;11.640;2023-04-15T05:02:48;94847.31;;;4.11;86.05
31775;BME280;66189;49.000;11.640;2023-04-15T05:04:48;94840.81;;;4.08;85.92
31775;BME280;66189;49.000;11.640;2023-04-15T05:06:51;94847.66;;;4.09;85.66
31775;BME280;66189;49.000;11.640;2023-04-15T05:08:51;94846.97;;;4.13;85.23
31775;BME280;66189;49.000;11.640;2023-04-15T05:10:51;94840.69;;;4.05;86.40
31775;BME280;66189;49.000;11.640;2023-04-15T05:12:52;94843.47;;;4.08;85.83
31775;BME280;66189;49.000;11.640;2023-04-15T05:14:52;94839.47;;;4.02;86.09
31775;BME280;66189;49.000;11.640;2023-04-15T05:16:52;94839.47;;;4.02;86.36
31775;BME280;66189;49.000;11.640;2023-04-15T05:18:53;94839.81;;;4.01;86.68
31775;BME280;66189;49.000;11.640;2023-04-15T05:20:53;94841.09;;;3.91;86.98
31775;BME280;66189;49.000;11.640;2023-04-15T05:22:53;94839.25;;;4.07;86.79
31775;BME280;66189;49.000;11.640;2023-04-15T05:24:54;94843.88;;;4.11;85.66
31775;BME280;66189;49.000;11.640;2023-04-15T05:26:54;94850.84;;;4.15;86.33
31775;BME280;66189;49.000;11.640;2023-04-15T05:28:55;94851.19;;;4.14;85.74
31775;BME280;66189;49.000;11.640;2023-04-15T05:30:56;94846.97;;;4.13;85.90
31775;BME280;66189;49.000;11.640;2023-04-15T05:32:56;94850.22;;;4.06;86.06
31775;BME280;66189;49.000;11.640;2023-04-15T05:34:57;94846.34;;;4.03;86.27
31775;BME280;66189;49.000;11.640;2023-04-15T05:36:57;94846.00;;;4.05;86.79
31775;BME280;66189;49.000;11.640;2023-04-15T05:38:57;94846.13;;;4.08;86.77
31775;BME280;66189;49.000;11.640;2023-04-15T05:40:58;94843.19;;;4.14;86.73
31775;BME280;66189;49.000;11.640;2023-04-15T05:42:58;94850.75;;;4.12;86.29
31775;BME280;66189;49.000;11.640;2023-04-15T05:44:58;94856.09;;;4.12;86.49
31775;BME280;66189;49.000;11.640;2023-04-15T05:46:59;94855.41;;;4.15;87.39
31775;BME280;66189;49.000;11.640;2023-04-15T05:48:59;94856.59;;;4.01;87.29
31775;BME280;66189;49.000;11.640;2023-04-15T05:51:00;94861.81;;;4.14;87.65
31775;BME280;66189;49.000;11.640;2023-04-15T05:53:00;94864.41;;;4.10;87.47
31775;BME280;66189;49.000;11.640;2023-04-15T05:55:03;94863.63;;;4.09;87.71
31775;BME280;66189;49.000;11.640;2023-04-15T05:57:03;94857.19;;;4.11;87.76
31775;BME280;66189;49.000;11.640;2023-04-15T05:59:04;94866.19;;;4.22;87.55
31775;BME280;66189;49.000;11.640;2023-04-15T06:01:04;94858.81;;;4.15;87.29
31775;BME280;66189;49.000;11.640;2023-04-15T06:03:05;94864.91;;;4.16;87.22
31775;BME280;66189;49.000;11.640;2023-04-15T06:05:06;94866.13;;;4.18;87.57
31775;BME280;66189;49.000;11.640;2023-04-15T06:07:10;94863.72;;;4.29;87.34
31775;BME280;66189;49.000;11.640;2023-04-15T06:09:13;94862.44;;;4.23;87.23
31775;BME280;66189;49.000;11.640;2023-04-15T06:11:14;94863.19;;;4.23;87.80
31775;BME280;66189;49.000;11.640;2023-04-15T06:13:14;94856.59;;;4.17;87.82
31775;BME280;66189;49.000;11.640;2023-04-15T06:15:16;94858.47;;;4.17;88.09
31775;BME280;66189;49.000;11.640;2023-04-15T06:17:16;94860.38;;;4.16;87.86
31775;BME280;66189;49.000;11.640;2023-04-15T06:19:18;94856.16;;;4.15;87.79
31775;BME280;66189;49.000;11.640;2023-04-15T06:21:18;94854.72;;;4.18;87.87
31775;BME280;66189;49.000;11.640;2023-04-15T06:23:18;94863.81;;;4.17;88.01
31775;BME280;66189;49.000;11.640;2023-04-15T06:25:19;94863.13;;;4.20;88.47
31775;BME280;66189;49.000;11.640;2023-04-15T06:27:19;94869.47;;;4.15;88.65
31775;BME280;66189;49.000;11.640;2023-04-15T06:29:19;94869.81;;;4.30;88.47
31775;BME280;66189;49.000;11.640;2023-04-15T06:31:20;94873.00;;;4.35;88.37
31775;BME280;66189;49.000;11.640;2023-04-15T06:33:20;94879.72;;;4.45;88.09
31775;BME280;66189;49.000;11.640;2023-04-15T06:35:20;94876.00;;;4.50;87.78
31775;BME280;66189;49.000;11.640;2023-04-15T06:37:23;94874.63;;;4.56;87.44
31775;BME280;66189;49.000;11.640;2023-04-15T06:39:23;94871.09;;;4.52;87.27
31775;BME280;66189;49.000;11.640;2023-04-15T06:41:24;94871.47;;;4.34;87.06
31775;BME280;66189;49.000;11.640;2023-04-15T06:43:24;94879.19;;;4.55;87.77
31775;BME280;66189;49.000;11.640;2023-04-15T06:45:24;94869.66;;;4.54;87.34
31775;BME280;66189;49.000;11.640;2023-04-15T06:47:25;94873.59;;;4.60;87.79
31775;BME280;66189;49.000;11.640;2023-04-15T06:49:25;94870.50;;;4.58;86.91
31775;BME280;66189;49.000;11.640;2023-04-15T06:51:26;94876.09;;;4.69;86.98
31775;BME280;66189;49.000;11.640;2023-04-15T06:53:26;94878.84;;;4.73;86.88
31775;BME280;66189;49.000;11.640;2023-04-15T06:55:29;94875.06;;;4.74;87.50
31775;BME280;66189;49.000;11.640;2023-04-15T06:57:30;94882.00;;;4.78;86.90
31775;BME280;66189;49.000;11.640;2023-04-15T06:59:31;94878.72;;;4.85;86.90
31775;BME280;66189;49.000;11.640;2023-04-15T07:01:31;94883.81;;;4.74;86.49
31775;BME280;66189;49.000;11.640;2023-04-15T07:03:32;94885.78;;;4.77;86.60
31775;BME280;66189;49.000;11.640;2023-04-15T07:05:32;94877.69;;;4.90;87.16
31775;BME280;66189;49.000;11.640;2023-04-15T07:07:32;94867.19;;;4.97;86.49
31775;BME280;66189;49.000;11.640;2023-04-15T07:09:33;94881.13;;;4.90;84.42
31775;BME280;66189;49.000;11.640;2023-04-15T07:11:33;94876.13;;;4.89;85.03
31775;BME280;66189;49.000;11.640;2023-04-15T07:13:34;94867.78;;;4.90;86.19
31775;BME280;66189;49.000;11.640;2023-04-15T07:15:36;94868.00;;;4.82;85.53
31775;BME280;66189;49.000;11.640;2023-04-15T07:17:37;94872.78;;;4.92;85.44
31775;BME280;66189;49.000;11.640;2023-04-15T07:19:37;94875.78;;;4.90;85.66
31775;BME280;66189;49.000;11.640;2023-04-15T07:21:37;94869.75;;;4.93;85.63
31775;BME280;66189;49.000;11.640;2023-04-15T07:23:38;94873.63;;;4.96;85.88
31775;BME280;66189;49.000;11.640;2023-04-15T07:25:38;94863.94;;;4.88;85.23
31775;BME280;66189;49.000;11.640;2023-04-15T07:27:38;94866.16;;;4.86;84.79
31775;BME280;66189;49.000;11.640;2023-04-15T07:29:39;94863.25;;;4.91;85.14
31775;BME280;66189;49.000;11.640;2023-04-15T07:31:39;94864.38;;;4.90;84.92
31775;BME280;66189;49.000;11.640;2023-04-15T07:33:41;94865.44;;;5.05;85.16
31775;BME280;66189;49.000;11.640;2023-04-15T07:35:41;94869.41;;;4.95;84.03
31775;BME280;66189;49.000;11.640;2023-04-15T07:37:42;94880.69;;;5.04;83.58
31775;BME280;66189;49.000;11.640;2023-04-15T07:39:42;94872.75;;;5.08;84.26
31775;BME280;66189;49.000;11.640;2023-04-15T07:41:43;94871.34;;;5.14;83.92
31775;BME280;66189;49.000;11.640;2023-04-15T07:43:43;94879.69;;;5.12;83.86
31775;BME280;66189;49.000;11.640;2023-04-15T07:45:44;94874.53;;;5.20;84.30
31775;BME280;66189;49.000;11.640;2023-04-15T07:47:44;94878.16;;;5.11;83.64
31775;BME280;66189;49.000;11.640;2023-04-15T07:49:45;94872.22;;;5.18;83.69
31775;BME280;66189;49.000;11.640;2023-04-15T07:51:45;94871.81;;;5.00;83.79
31775;BME280;66189;49.000;11.640;2023-04-15T07:53:46;94874.66;;;5.07;83.58
31775;BME280;66189;49.000;11.640;2023-04-15T07:55:46;94879.63;;;5.09;83.96
31775;BME280;66189;49.000;11.640;2023-04-15T07:57:47;94878.84;;;5.08;83.12
31775;BME280;66189;49.000;11.640;2023-04-15T07:59:47;94866.56;;;5.04;83.22
31775;BME280;66189;49.000;11.640;2023-04-15T08:01:48;94875.59;;;4.99;81.84
31775;BME280;66189;49.000;11.640;2023-04-15T08:03:49;94874.50;;;5.00;82.71
31775;BME280;66189;49.000;11.640;2023-04-15T08:05:49;94869.41;;;4.95;82.85
31775;BME280;66189;49.000;11.640;2023-04-15T08:07:50;94872.41;;;5.09;83.36
31775;BME280;66189;49.000;11.640;2023-04-15T08:09:50;94873.03;;;5.22;83.82
31775;BME280;66189;49.000;11.640;2023-04-15T08:11:51;94870.47;;;5.26;83.95
31775;BME280;66189;49.000;11.640;2023-04-15T08:13:52;94882.47;;;5.36;83.63
31775;BME280;66189;49.000;11.640;2023-04-15T08:16:11;94877.34;;;5.46;83.46
31775;BME280;66189;49.000;11.640;2023-04-15T08:18:12;94879.19;;;5.62;82.39
31775;BME280;66189;49.000;11.640;2023-04-15T08:20:12;94887.06;;;5.74;81.75
31775;BME280;66189;49.000;11.640;2023-04-15T08:22:13;94892.94;;;5.64;81.23
31775;BME280;66189;49.000;11.640;2023-04-15T08:24:14;94882.63;;;5.62;82.28
31775;BME280;66189;49.000;11.640;2023-04-15T08:26:14;94892.75;;;5.73;81.55
31775;BME280;66189;49.000;11.640;2023-04-15T08:28:15;94893.00;;;5.48;80.45
31775;BME280;66189;49.000;11.640;2023-04-15T08:30:16;94884.44;;;5.58;80.60
31775;BME280;66189;49.000;11.640;2023-04-15T08:32:16;94892.94;;;5.64;81.36
31775;BME280;66189;49.000;11.640;2023-04-15T08:34:18;94889.16;;;5.65;80.74
31775;BME280;66189;49.000;11.640;2023-04-15T08:36:19;94893.25;;;5.59;78.26
31775;BME280;66189;49.000;11.640;2023-04-15T08:38:19;94892.75;;;5.73;80.58
31775;BME280;66189;49.000;11.640;2023-04-15T08:40:19;94893.66;;;5.61;80.25
31775;BME280;66189;49.000;11.640;2023-04-15T08:42:22;94891.94;;;5.72;80.22
31775;BME280;66189;49.000;11.640;2023-04-15T08:44:26;94888.78;;;5.86;81.04
31775;BME280;66189;49.000;11.640;2023-04-15T08:46:29;94891.53;;;5.90;80.89
31775;BME280;66189;49.000;11.640;2023-04-15T08:48:31;94896.00;;;6.01;80.92
31775;BME280;66189;49.000;11.640;2023-04-15T08:50:32;94886.97;;;6.10;79.14
31775;BME280;66189;49.000;11.640;2023-04-15T08:52:32;94891.00;;;6.00;80.07
31775;BME280;66189;49.000;11.640;2023-04-15T08:54:33;94891.88;;;5.88;80.44
31775;BME280;66189;49.000;11.640;2023-04-15T08:56:33;94889.72;;;5.94;79.33
31775;BME280;66189;49.000;11.640;2023-04-15T08:58:35;94899.56;;;6.09;80.04
31775;BME280;66189;49.000;11.640;2023-04-15T09:00:36;94896.44;;;6.07;78.53
31775;BME280;66189;49.000;11.640;2023-04-15T09:02:37;94890.75;;;6.09;79.14
31775;BME280;66189;49.000;11.640;2023-04-15T09:04:38;94898.84;;;6.12;78.62
31775;BME280;66189;49.000;11.640;2023-04-15T09:06:38;94905.06;;;5.97;76.70
31775;BME280;66189;49.000;11.640;2023-04-15T09:08:39;94912.47;;;6.07;77.54
31775;BME280;66189;49.000;11.640;2023-04-15T09:10:39;94907.75;;;5.81;76.51
31775;BME280;66189;49.000;11.640;2023-04-15T09:12:39;94909.38;;;5.85;77.37
31775;BME280;66189;49.000;11.640;2023-04-15T09:14:41;94906.34;;;5.87;78.77
31775;BME280;66189;49.000;11.640;2023-04-15T09:19:01;94911.22;;;6.01;78.45
31775;BME280;66189;49.000;11.640;2023-04-15T09:21:19;94918.09;;;6.02;78.54
31775;BME280;66189;49.000;11.640;2023-04-15T09:23:20;94913.47;;;5.99;79.03
31775;BME280;66189;49.000;11.640;2023-04-15T09:27:21;94918.88;;;6.02;78.75
31775;BME280;66189;49.000;11.640;2023-04-15T09:29:23;94916.25;;;5.86;79.33
31775;BME280;66189;49.000;11.640;2023-04-15T09:31:28;94928.06;;;5.85;78.75
31775;BME280;66189;49.000;11.640;2023-04-15T09:33:28;94927.94;;;5.98;79.20
31775;BME280;66189;49.000;11.640;2023-04-15T09:35:29;94918.63;;;5.92;79.11
31775;BME280;66189;49.000;11.640;2023-04-15T09:37:38;94918.66;;;6.11;78.82
31775;BME280;66189;49.000;11.640;2023-04-15T09:39:45;94927.38;;;6.08;78.86
31775;BME280;66189;49.000;11.640;2023-04-15T09:41:46;94925.34;;;6.01;77.79
31775;BME280;66189;49.000;11.640;2023-04-15T09:43:47;94933.72;;;6.00;79.21
31775;BME280;66189;49.000;11.640;2023-04-15T09:45:50;94938.81;;;6.09;79.36
31775;BME280;66189;49.000;11.640;2023-04-15T09:47:51;94937.28;;;6.08;78.60
31775;BME280;66189;49.000;11.640;2023-04-15T09:49:55;94931.47;;;6.02;78.07
31775;BME280;66189;49.000;11.640;2023-04-15T09:51:59;94931.66;;;6.13;78.36
31775;BME280;66189;49.000;11.640;2023-04-15T09:54:00;94936.69;;;6.18;77.84
31775;BME280;66189;49.000;11.640;2023-04-15T09:56:00;94932.06;;;6.15;78.38
31775;BME280;66189;49.000;11.640;2023-04-15T09:58:01;94928.69;;;6.18;77.83
31775;BME280;66189;49.000;11.640;2023-04-15T10:00:02;94935.72;;;5.87;76.69
31775;BME280;66189;49.000;11.640;2023-04-15T10:02:06;94948.72;;;5.88;78.81
31775;BME280;66189;49.000;11.640;2023-04-15T10:04:07;94945.97;;;5.85;79.39
31775;BME280;66189;49.000;11.640;2023-04-15T10:06:07;94945.63;;;5.86;78.55
31775;BME280;66189;49.000;11.640;2023-04-15T10:08:08;94942.81;;;5.79;78.76
31775;BME280;66189;49.000;11.640;2023-04-15T10:10:09;94948.09;;;5.76;79.37
31775;BME280;66189;49.000;11.640;2023-04-15T10:12:10;94951.66;;;5.64;79.62
31775;BME280;66189;49.000;11.640;2023-04-15T10:14:11;94948.00;;;5.72;79.31
31775;BME280;66189;49.000;11.640;2023-04-15T10:16:13;94951.72;;;5.67;79.40
31775;BME280;66189;49.000;11.640;2023-04-15T10:18:14;94955.66;;;5.74;79.66
31775;BME280;66189;49.000;11.640;2023-04-15T10:20:15;94944.78;;;5.82;79.03
31775;BME280;66189;49.000;11.640;2023-04-15T10:22:16;94955.75;;;5.77;78.35
31775;BME280;66189;49.000;11.640;2023-04-15T10:24:17;94951.16;;;5.78;78.20
31775;BME280;66189;49.000;11.640;2023-04-15T10:26:18;94958.78;;;5.95;78.12
31775;BME280;66189;49.000;11.640;2023-04-15T10:28:18;94958.91;;;6.02;77.83
31775;BME280;66189;49.000;11.640;2023-04-15T10:30:19;94955.78;;;5.97;78.23
31775;BME280;66189;49.000;11.640;2023-04-15T10:32:20;94957.16;;;6.10;77.87
31775;BME280;66189;49.000;11.640;2023-04-15T10:34:24;94961.53;;;6.18;77.55
31775;BME280;66189;49.000;11.640;2023-04-15T10:36:25;94956.69;;;6.24;76.76
31775;BME280;66189;49.000;11.640;2023-04-15T10:40:31;94955.88;;;6.23;77.47
31775;BME280;66189;49.000;11.640;2023-04-15T10:42:33;94949.84;;;6.27;76.44
31775;BME280;66189;49.000;11.640;2023-04-15T10:44:34;94956.59;;;6.20;76.39
31775;BME280;66189;49.000;11.640;2023-04-15T10:46:39;94957.38;;;6.21;76.33